createdAt,value
2022-12-28T00:03:51.298Z,98424.84
2022-12-28T00:08:57.183Z,98417.13
2022-12-28T00:14:00.915Z,98399.31
2022-12-28T00:19:11.121Z,98389.38
2022-12-28T00:24:20.072Z,98378.28
2022-12-28T00:29:21.758Z,98377.44
2022-12-28T00:34:23.369Z,98373.13
2022-12-28T00:39:25.021Z,98384.44
2022-12-28T00:44:27.847Z,98384.53
2022-12-28T00:49:29.447Z,98387.03
2022-12-28T00:54:31.072Z,98381.53
2022-12-28T00:59:32.765Z,98370.66
2022-12-28T01:04:34.547Z,98370.22
2022-12-28T01:09:36.144Z,98368.66
2022-12-28T01:14:37.730Z,98370.38
2022-12-28T01:19:39.418Z,98362.09
2022-12-28T01:24:41.026Z,98361.97
2022-12-28T01:29:42.654Z,98366.50
2022-12-28T01:34:44.788Z,98363.94
2022-12-28T01:39:47.197Z,98345.38
2022-12-28T01:44:51.786Z,98342.03
2022-12-28T01:50:11.704Z,98326.69
2022-12-28T01:55:36.773Z,98319.69
2022-12-28T02:00:40.058Z,98311.75
2022-12-28T02:05:46.061Z,98299.56
2022-12-28T02:10:48.115Z,98283.84
2022-12-28T02:15:51.208Z,98270.13
2022-12-28T02:21:08.513Z,98262.34
2022-12-28T02:26:32.218Z,98250.47
2022-12-28T02:31:44.304Z,98232.13
2022-12-28T02:36:52.684Z,98224.44
2022-12-28T02:41:56.121Z,98226.88
2022-12-28T02:47:17.303Z,98211.69
2022-12-28T02:52:37.616Z,98202.59
2022-12-28T02:57:54.597Z,98203.63
2022-12-28T03:03:21.489Z,98184.22
2022-12-28T03:08:44.057Z,98181.31
2022-12-28T03:13:59.666Z,98161.19
2022-12-28T03:19:26.363Z,98165.06
2022-12-28T03:24:53.551Z,98161.47
2022-12-28T03:30:25.511Z,98146.84
2022-12-28T03:36:10.198Z,98141.56
2022-12-28T03:41:30.527Z,98131.88
2022-12-28T03:47:00.447Z,98119.47
2022-12-28T03:52:03.327Z,98109.50
2022-12-28T03:57:05.225Z,98106.00
2022-12-28T04:02:12.046Z,98102.75
2022-12-28T04:07:14.095Z,98099.22
2022-12-28T04:12:15.927Z,98103.41
2022-12-28T04:17:45.047Z,98081.88
2022-12-28T04:22:46.693Z,98070.47
2022-12-28T04:27:49.040Z,98058.06
2022-12-28T04:33:10.582Z,98066.75
2022-12-28T04:38:13.547Z,98063.56
2022-12-28T04:43:15.158Z,98061.53
2022-12-28T04:48:16.711Z,98036.03
2022-12-28T04:53:18.454Z,98033.59
2022-12-28T04:58:20.014Z,98024.41
2022-12-28T05:03:21.580Z,98010.34
2022-12-28T05:08:23.160Z,98026.81
2022-12-28T05:13:24.726Z,98019.00
2022-12-28T05:18:26.297Z,98028.09
2022-12-28T05:23:32.393Z,98043.91
2022-12-28T05:28:34.140Z,98035.63
2022-12-28T05:33:36.715Z,98035.63
2022-12-28T05:38:38.558Z,98022.09
2022-12-28T05:43:40.429Z,98019.28
2022-12-28T05:48:42.893Z,97998.56
2022-12-28T05:53:44.646Z,98005.47
2022-12-28T05:58:51.905Z,97995.59
2022-12-28T06:03:59.345Z,98004.41
2022-12-28T06:09:01.745Z,98002.84
2022-12-28T06:14:05.738Z,97998.41
2022-12-28T06:19:09.706Z,97987.88
2022-12-28T06:24:13.779Z,97978.28
2022-12-28T06:29:15.651Z,97969.28
2022-12-28T06:34:17.489Z,97952.09
2022-12-28T06:39:19.148Z,97956.03
2022-12-28T06:44:20.727Z,97937.38
2022-12-28T06:49:22.346Z,97944.00
2022-12-28T06:54:24.173Z,97932.78
2022-12-28T06:59:25.757Z,97933.31
2022-12-28T07:04:27.321Z,97928.56
2022-12-28T07:09:28.908Z,97920.41
2022-12-28T07:14:32.259Z,97908.78
2022-12-28T07:19:34.059Z,97892.88
2022-12-28T07:24:35.838Z,97888.94
2022-12-28T07:29:37.435Z,97904.81
2022-12-28T07:34:39.011Z,97909.97
2022-12-28T07:39:40.611Z,97885.09
2022-12-28T07:44:48.639Z,97888.34
2022-12-28T07:49:50.600Z,97888.47
2022-12-28T07:54:52.175Z,97874.59
2022-12-28T07:59:53.750Z,97857.22
2022-12-28T08:04:55.321Z,97843.22
2022-12-28T08:09:56.897Z,97840.34
2022-12-28T08:15:01.150Z,97824.69
2022-12-28T08:20:02.830Z,97832.34
2022-12-28T08:25:04.687Z,97841.81
2022-12-28T08:30:07.768Z,97850.00
2022-12-28T08:35:09.430Z,97843.44
2022-12-28T08:40:11.666Z,97840.09
2022-12-28T08:45:13.330Z,97837.13
2022-12-28T08:50:19.542Z,97820.94
2022-12-28T08:55:21.542Z,97820.88
2022-12-28T09:00:23.204Z,97814.72
2022-12-28T09:05:24.843Z,97833.47
2022-12-28T09:10:26.558Z,97819.44
2022-12-28T09:15:28.185Z,97811.13
2022-12-28T09:20:30.450Z,97820.50
2022-12-28T09:25:32.034Z,97810.69
2022-12-28T09:30:33.667Z,97804.06
2022-12-28T09:35:35.243Z,97794.06
2022-12-28T09:40:37.930Z,97796.47
2022-12-28T09:45:42.488Z,97803.91
2022-12-28T09:50:44.271Z,97800.56
2022-12-28T09:55:58.458Z,97790.69
2022-12-28T10:01:02.912Z,97788.22
2022-12-28T10:06:12.146Z,97772.38
2022-12-28T10:11:18.767Z,97756.25
2022-12-28T10:16:21.226Z,97776.88
2022-12-28T10:21:31.921Z,97751.34
2022-12-28T10:26:35.447Z,97763.34
2022-12-28T10:31:39.923Z,97747.44
2022-12-28T10:36:42.026Z,97735.69
2022-12-28T10:41:45.485Z,97725.47
2022-12-28T10:46:55.616Z,97724.38
2022-12-28T10:52:06.561Z,97707.41
2022-12-28T10:57:20.657Z,97711.81
2022-12-28T11:02:28.145Z,97711.97
2022-12-28T11:07:33.500Z,97691.88
2022-12-28T11:12:43.241Z,97704.84
2022-12-28T11:18:10.619Z,97682.19
2022-12-28T11:23:24.399Z,97684.59
2022-12-28T11:28:26.031Z,97696.41
2022-12-28T11:33:40.795Z,97695.25
2022-12-28T11:38:47.732Z,97681.50
2022-12-28T11:43:54.169Z,97688.47
2022-12-28T11:49:05.173Z,97670.19
2022-12-28T11:54:35.935Z,97689.78
2022-12-28T11:59:37.627Z,97679.91
2022-12-28T12:04:42.135Z,97678.63
2022-12-28T12:09:47.729Z,97681.69
2022-12-28T12:14:56.529Z,97663.06
2022-12-28T12:20:02.981Z,97680.13
2022-12-28T12:25:15.148Z,97663.00
2022-12-28T12:30:19.270Z,97650.06
2022-12-28T12:35:24.691Z,97659.94
2022-12-28T12:40:48.281Z,97648.03
2022-12-28T12:46:31.201Z,97642.34
2022-12-28T12:51:36.819Z,97641.38
2022-12-28T12:56:38.414Z,97623.75
2022-12-28T13:02:04.963Z,97637.66
2022-12-28T13:07:16.511Z,97625.19
2022-12-28T13:12:20.103Z,97625.19
2022-12-28T13:17:22.899Z,97625.53
2022-12-28T13:22:32.612Z,97631.03
2022-12-28T13:27:36.096Z,97630.03
2022-12-28T13:32:38.727Z,97633.97
2022-12-28T13:37:40.513Z,97615.50
2022-12-28T13:43:00.780Z,97610.94
2022-12-28T13:48:04.102Z,97613.38
2022-12-28T13:53:12.068Z,97612.09
2022-12-28T13:58:36.439Z,97601.06
2022-12-28T14:03:42.322Z,97599.81
2022-12-28T14:08:49.023Z,97584.75
2022-12-28T14:13:51.401Z,97593.00
2022-12-28T14:18:53.727Z,97587.34
2022-12-28T14:24:07.025Z,97591.38
2022-12-28T14:29:18.144Z,97588.00
2022-12-28T14:34:31.553Z,97583.28
2022-12-28T14:39:45.376Z,97593.00
2022-12-28T14:44:52.506Z,97595.75
2022-12-28T14:50:00.477Z,97588.94
2022-12-28T14:55:45.332Z,97584.94
2022-12-28T15:01:03.009Z,97592.34
2022-12-28T15:06:04.926Z,97579.41
2022-12-28T15:11:09.046Z,97578.91
2022-12-28T15:16:13.240Z,97574.53
2022-12-28T15:21:23.567Z,97582.81
2022-12-28T15:26:27.486Z,97581.50
2022-12-28T15:31:29.177Z,97583.13
2022-12-28T15:36:30.870Z,97574.38
2022-12-28T15:41:47.649Z,97577.47
2022-12-28T15:46:50.488Z,97570.31
2022-12-28T15:51:52.121Z,97576.31
2022-12-28T15:56:55.651Z,97576.31
2022-12-28T16:01:57.514Z,97566.28
2022-12-28T16:06:59.321Z,97571.63
2022-12-28T16:12:01.080Z,97564.03
2022-12-28T16:17:02.688Z,97572.41
2022-12-28T16:22:04.308Z,97574.03
2022-12-28T16:27:05.945Z,97574.38
2022-12-28T16:32:07.622Z,97565.78
2022-12-28T16:37:10.283Z,97562.56
2022-12-28T16:42:12.039Z,97561.13
2022-12-28T16:47:13.830Z,97557.41
2022-12-28T16:52:15.703Z,97563.84
2022-12-28T16:57:17.478Z,97555.94
2022-12-28T17:02:19.527Z,97560.13
2022-12-28T17:07:21.481Z,97561.44
2022-12-28T17:12:23.255Z,97558.00
2022-12-28T17:17:25.018Z,97554.78
2022-12-28T17:22:27.487Z,97545.41
2022-12-28T17:27:29.353Z,97540.84
2022-12-28T17:32:31.240Z,97544.91
2022-12-28T17:37:33.028Z,97538.13
2022-12-28T17:42:35.291Z,97543.94
2022-12-28T17:47:37.093Z,97536.28
2022-12-28T17:52:40.206Z,97549.59
2022-12-28T17:57:42.046Z,97532.75
2022-12-28T18:02:47.161Z,97539.72
2022-12-28T18:07:49.040Z,97539.22
2022-12-28T18:12:50.886Z,97524.00
2022-12-28T18:17:52.661Z,97513.66
2022-12-28T18:22:54.439Z,97508.66
2022-12-28T18:27:56.405Z,97508.34
2022-12-28T18:32:58.211Z,97508.03
2022-12-28T18:37:59.992Z,97510.75
2022-12-28T18:43:01.785Z,97495.88
2022-12-28T18:48:03.757Z,97494.91
2022-12-28T18:53:05.531Z,97481.38
2022-12-28T18:58:07.343Z,97470.03
2022-12-28T19:03:09.258Z,97465.50
2022-12-28T19:08:11.216Z,97453.41
2022-12-28T19:13:12.971Z,97451.78
2022-12-28T19:18:14.934Z,97442.06
2022-12-28T19:23:16.708Z,97437.88
2022-12-28T19:28:18.509Z,97436.25
2022-12-28T19:33:20.313Z,97437.22
2022-12-28T19:38:22.251Z,97431.06
2022-12-28T19:43:24.008Z,97428.78
2022-12-28T19:48:25.802Z,97431.22
2022-12-28T19:53:28.690Z,97413.59
2022-12-28T19:58:33.322Z,97410.63
2022-12-28T20:03:35.628Z,97409.03
2022-12-28T20:08:38.602Z,97398.22
2022-12-28T20:13:40.453Z,97401.47
2022-12-28T20:18:49.477Z,97382.34
2022-12-28T20:23:53.056Z,97381.84
2022-12-28T20:28:59.131Z,97363.34
2022-12-28T20:34:01.735Z,97365.38
2022-12-28T20:39:03.852Z,97353.84
2022-12-28T20:44:12.056Z,97357.53
2022-12-28T20:49:14.083Z,97348.25
2022-12-28T20:54:16.183Z,97319.13
2022-12-28T20:59:17.952Z,97323.00
2022-12-28T21:04:19.800Z,97315.66
2022-12-28T21:09:22.284Z,97326.31
2022-12-28T21:14:24.177Z,97293.63
2022-12-28T21:19:25.968Z,97293.38
2022-12-28T21:24:27.787Z,97286.97
2022-12-28T21:29:31.095Z,97281.59
2022-12-28T21:34:32.931Z,97287.28
2022-12-28T21:39:34.700Z,97280.06
2022-12-28T21:44:36.550Z,97274.75
2022-12-28T21:49:38.333Z,97274.03
2022-12-28T21:54:40.614Z,97275.38
2022-12-28T21:59:43.147Z,97264.72
2022-12-28T22:05:03.718Z,97263.34
2022-12-28T22:10:24.482Z,97268.69
2022-12-28T22:15:45.202Z,97255.13
2022-12-28T22:20:47.625Z,97255.81
2022-12-28T22:25:50.649Z,97242.28
2022-12-28T22:30:52.405Z,97242.91
2022-12-28T22:35:54.322Z,97238.28
2022-12-28T22:40:59.633Z,97232.75
2022-12-28T22:46:11.722Z,97224.28
2022-12-28T22:51:15.152Z,97219.59
2022-12-28T22:56:20.042Z,97208.19
2022-12-28T23:01:21.802Z,97198.13
2022-12-28T23:06:23.505Z,97180.94
2022-12-28T23:11:37.738Z,97172.09
2022-12-28T23:16:39.412Z,97168.03
2022-12-28T23:21:59.592Z,97168.94
2022-12-28T23:27:19.951Z,97168.19
2022-12-28T23:32:21.557Z,97167.00
2022-12-28T23:37:23.221Z,97164.69
2022-12-28T23:42:24.858Z,97160.56
2022-12-28T23:47:26.546Z,97154.88
2022-12-28T23:52:28.623Z,97144.25
2022-12-28T23:57:30.225Z,97135.75
